Airport View

Enter AWOS ICAO identifier for current METAR.

ex. KFNL

KLHW 101456Z AUTO 23003KT 10SM FEW180 29/23 A3011 RMK AO2 SLP199 T02880227 51005 $

10 Aug 2020 15:07

Other Area AWOS: KSVN - KSAV - KCWV - KJES

TAF AMD KSVN 101347Z 1013/1118 22006KT 9999 SCT020 BKN120 QNH3005INS TEMPO 1013/1015 18010G15KT 4800 -TSRA BKN050CB TEMPO 1018/1100 18020G30KT 3200 TSRA BKN030CB BKN090 BECMG 1115/1116 23003KT 9999 VCTS SCT020 BKN050CB QNH3007INS TX34/1020Z TN24/1112Z